createdAt,value
2022-11-08T00:02:04.947Z,100888.59
2022-11-08T00:04:32.163Z,100886.25
2022-11-08T00:07:17.216Z,100888.00
2022-11-08T00:10:02.317Z,100883.69
2022-11-08T00:12:47.501Z,100891.75
2022-11-08T00:15:13.937Z,100886.38
2022-11-08T00:17:40.375Z,100895.31
2022-11-08T00:20:08.760Z,100894.72
2022-11-08T00:22:35.415Z,100889.50
2022-11-08T00:25:01.875Z,100888.75
2022-11-08T00:27:28.354Z,100891.13
2022-11-08T00:29:54.805Z,100892.63
2022-11-08T00:32:23.567Z,100882.78
2022-11-08T00:34:50.746Z,100895.19
2022-11-08T00:37:18.383Z,100888.19
2022-11-08T00:39:45.486Z,100885.22
2022-11-08T00:42:12.008Z,100886.25
2022-11-08T00:44:38.829Z,100885.50
2022-11-08T00:47:05.577Z,100875.59
2022-11-08T00:49:32.056Z,100878.00
2022-11-08T00:51:58.433Z,100868.75
2022-11-08T00:54:24.927Z,100872.22
2022-11-08T00:56:51.369Z,100876.22
2022-11-08T00:59:19.135Z,100863.69
2022-11-08T01:01:46.351Z,100869.97
2022-11-08T01:04:17.511Z,100869.53
2022-11-08T01:06:44.260Z,100868.59
2022-11-08T01:09:10.966Z,100869.22
2022-11-08T01:11:38.894Z,100869.63
2022-11-08T01:14:05.308Z,100859.19
2022-11-08T01:16:32.933Z,100869.38
2022-11-08T01:19:01.396Z,100862.31
2022-11-08T01:21:28.723Z,100860.97
2022-11-08T01:23:55.436Z,100858.16
2022-11-08T01:26:24.668Z,100852.19
2022-11-08T01:28:51.533Z,100856.34
2022-11-08T01:31:20.571Z,100855.56
2022-11-08T01:33:51.217Z,100853.47
2022-11-08T01:36:20.558Z,100857.34
2022-11-08T01:38:47.433Z,100852.56
2022-11-08T01:41:14.843Z,100859.44
2022-11-08T01:44:02.555Z,100860.56
2022-11-08T01:46:33.136Z,100860.84
2022-11-08T01:49:33.053Z,100869.31
2022-11-08T01:52:16.470Z,100869.47
2022-11-08T01:54:47.668Z,100866.72
2022-11-08T01:57:17.683Z,100863.72
2022-11-08T01:59:45.142Z,100869.38
2022-11-08T02:02:12.726Z,100872.97
2022-11-08T02:04:40.203Z,100865.75
2022-11-08T02:07:06.989Z,100854.41
2022-11-08T02:09:35.148Z,100858.59
2022-11-08T02:12:02.187Z,100856.91
2022-11-08T02:14:28.709Z,100854.66
2022-11-08T02:16:55.095Z,100848.97
2022-11-08T02:19:31.298Z,100853.19
2022-11-08T02:22:01.464Z,100853.91
2022-11-08T02:24:28.346Z,100855.53
2022-11-08T02:26:55.274Z,100840.19
2022-11-08T02:29:29.177Z,100847.69
2022-11-08T02:31:56.637Z,100840.66
2022-11-08T02:34:27.242Z,100833.19
2022-11-08T02:36:53.876Z,100846.72
2022-11-08T02:39:20.435Z,100841.34
2022-11-08T02:41:46.859Z,100844.06
2022-11-08T02:44:13.304Z,100840.84
2022-11-08T02:46:39.711Z,100833.94
2022-11-08T02:49:06.127Z,100841.06
2022-11-08T02:51:32.819Z,100837.78
2022-11-08T02:53:59.200Z,100832.53
2022-11-08T02:56:25.600Z,100835.47
2022-11-08T02:58:52.027Z,100834.19
2022-11-08T03:01:18.511Z,100840.09
2022-11-08T03:03:45.006Z,100841.38
2022-11-08T03:06:11.378Z,100839.53
2022-11-08T03:08:37.836Z,100843.63
2022-11-08T03:11:04.242Z,100846.72
2022-11-08T03:13:30.698Z,100837.19
2022-11-08T03:15:57.117Z,100835.81
2022-11-08T03:18:23.556Z,100838.84
2022-11-08T03:20:50.086Z,100841.38
2022-11-08T03:23:16.596Z,100837.19
2022-11-08T03:25:43.002Z,100835.53
2022-11-08T03:28:09.713Z,100836.69
2022-11-08T03:30:36.329Z,100833.72
2022-11-08T03:33:03.067Z,100831.97
2022-11-08T03:35:29.707Z,100828.22
2022-11-08T03:37:57.245Z,100822.38
2022-11-08T03:40:24.331Z,100826.22
2022-11-08T03:42:50.726Z,100825.44
2022-11-08T03:45:17.376Z,100828.72
2022-11-08T03:47:45.886Z,100820.72
2022-11-08T03:50:13.594Z,100819.69
2022-11-08T03:52:41.145Z,100823.31
2022-11-08T03:55:08.502Z,100823.38
2022-11-08T03:57:34.922Z,100825.06
2022-11-08T04:00:01.455Z,100829.16
2022-11-08T04:02:27.942Z,100827.72
2022-11-08T04:04:54.368Z,100817.94
2022-11-08T04:07:20.753Z,100822.66
2022-11-08T04:09:47.194Z,100818.25
2022-11-08T04:12:32.151Z,100818.06
2022-11-08T04:15:17.449Z,100822.47
2022-11-08T04:18:04.559Z,100826.59
2022-11-08T04:20:49.469Z,100818.63
2022-11-08T04:23:17.021Z,100828.06
2022-11-08T04:25:43.959Z,100816.81
2022-11-08T04:28:10.801Z,100816.25
2022-11-08T04:30:37.734Z,100812.03
2022-11-08T04:33:04.908Z,100817.25
2022-11-08T04:35:31.832Z,100820.25
2022-11-08T04:37:59.630Z,100827.41
2022-11-08T04:40:26.530Z,100806.97
2022-11-08T04:42:52.919Z,100805.13
2022-11-08T04:45:19.344Z,100802.56
2022-11-08T04:47:48.463Z,100808.84
2022-11-08T04:50:15.872Z,100801.59
2022-11-08T04:52:42.404Z,100797.34
2022-11-08T04:55:09.175Z,100800.75
2022-11-08T04:57:35.585Z,100790.47
2022-11-08T05:00:01.963Z,100792.88
2022-11-08T05:02:28.477Z,100787.72
2022-11-08T05:04:55.115Z,100790.31
2022-11-08T05:07:21.530Z,100793.63
2022-11-08T05:09:48.019Z,100785.34
2022-11-08T05:12:14.426Z,100785.03
2022-11-08T05:14:40.854Z,100783.31
2022-11-08T05:17:07.283Z,100783.53
2022-11-08T05:19:52.220Z,100779.88
2022-11-08T05:22:37.007Z,100783.53
2022-11-08T05:25:03.651Z,100776.41
2022-11-08T05:27:30.051Z,100772.34
2022-11-08T05:29:56.581Z,100768.31
2022-11-08T05:32:23.086Z,100760.56
2022-11-08T05:34:49.481Z,100764.56
2022-11-08T05:37:15.895Z,100759.28
2022-11-08T05:39:42.379Z,100761.34
2022-11-08T05:42:08.909Z,100758.66
2022-11-08T05:44:35.420Z,100760.59
2022-11-08T05:47:01.955Z,100765.41
2022-11-08T05:49:28.385Z,100759.44
2022-11-08T05:51:55.176Z,100754.94
2022-11-08T05:54:21.574Z,100760.38
2022-11-08T05:56:47.948Z,100754.59
2022-11-08T05:59:14.360Z,100754.59
2022-11-08T06:01:40.847Z,100749.25
2022-11-08T06:04:07.334Z,100751.19
2022-11-08T06:06:33.715Z,100742.38
2022-11-08T06:09:00.120Z,100745.06
2022-11-08T06:11:27.221Z,100733.19
2022-11-08T06:13:54.223Z,100742.38
2022-11-08T06:16:21.993Z,100739.81
2022-11-08T06:18:48.760Z,100736.59
2022-11-08T06:21:17.365Z,100741.09
2022-11-08T06:23:43.855Z,100745.81
2022-11-08T06:26:10.632Z,100742.81
2022-11-08T06:28:37.455Z,100739.84
2022-11-08T06:31:04.706Z,100745.28
2022-11-08T06:33:31.202Z,100738.53
2022-11-08T06:35:57.704Z,100735.53
2022-11-08T06:38:24.315Z,100744.00
2022-11-08T06:40:50.764Z,100743.91
2022-11-08T06:43:19.913Z,100747.09
2022-11-08T06:45:47.160Z,100745.50
2022-11-08T06:48:13.587Z,100735.63
2022-11-08T06:50:41.768Z,100737.69
2022-11-08T06:53:09.214Z,100731.66
2022-11-08T06:55:36.145Z,100735.31
2022-11-08T06:58:03.961Z,100733.81
2022-11-08T07:00:30.887Z,100738.09
2022-11-08T07:02:59.633Z,100740.03
2022-11-08T07:05:27.995Z,100744.00
2022-11-08T07:07:54.907Z,100728.03
2022-11-08T07:10:23.717Z,100730.19
2022-11-08T07:12:58.759Z,100732.84
2022-11-08T07:15:25.157Z,100731.13
2022-11-08T07:17:51.753Z,100733.22
2022-11-08T07:20:18.245Z,100719.31
2022-11-08T07:22:44.785Z,100717.66
2022-11-08T07:25:11.227Z,100719.16
2022-11-08T07:27:37.641Z,100705.59
2022-11-08T07:30:04.402Z,100698.00
2022-11-08T07:32:30.781Z,100702.59
2022-11-08T07:34:57.207Z,100700.97
2022-11-08T07:37:23.778Z,100693.50
2022-11-08T07:39:50.222Z,100700.72
2022-11-08T07:42:16.595Z,100702.22
2022-11-08T07:44:43.003Z,100710.69
2022-11-08T07:47:09.400Z,100705.34
2022-11-08T07:49:36.468Z,100705.13
2022-11-08T07:52:02.945Z,100710.63
2022-11-08T07:54:29.333Z,100708.25
2022-11-08T07:56:55.728Z,100695.09
2022-11-08T07:59:22.162Z,100698.72
2022-11-08T08:01:48.584Z,100696.44
2022-11-08T08:04:15.174Z,100684.72
2022-11-08T08:06:41.642Z,100691.94
2022-11-08T08:09:08.133Z,100674.84
2022-11-08T08:11:34.560Z,100667.38
2022-11-08T08:14:01.243Z,100663.31
2022-11-08T08:16:27.865Z,100671.72
2022-11-08T08:18:56.561Z,100685.69
2022-11-08T08:21:23.565Z,100678.06
2022-11-08T08:23:49.966Z,100670.34
2022-11-08T08:26:16.401Z,100669.44
2022-11-08T08:28:42.806Z,100669.31
2022-11-08T08:31:09.217Z,100669.81
2022-11-08T08:33:35.941Z,100663.66
2022-11-08T08:36:02.636Z,100665.59
2022-11-08T08:38:30.122Z,100673.84
2022-11-08T08:40:56.531Z,100668.91
2022-11-08T08:43:23.175Z,100669.50
2022-11-08T08:45:49.883Z,100671.91
2022-11-08T08:48:16.742Z,100668.59
2022-11-08T08:50:43.187Z,100656.94
2022-11-08T08:53:10.244Z,100653.69
2022-11-08T08:55:38.787Z,100642.63
2022-11-08T08:58:05.784Z,100637.38
2022-11-08T09:03:19.718Z,100636.56
2022-11-08T09:05:46.775Z,100626.41
2022-11-08T09:08:15.769Z,100632.66
2022-11-08T09:10:42.300Z,100625.66
2022-11-08T09:13:09.122Z,100634.94
2022-11-08T09:15:35.617Z,100620.13
2022-11-08T09:18:02.249Z,100622.78
2022-11-08T09:20:28.699Z,100618.97
2022-11-08T09:22:55.081Z,100620.28
2022-11-08T09:25:21.492Z,100618.41
2022-11-08T09:27:48.016Z,100625.28
2022-11-08T09:30:14.462Z,100619.41
2022-11-08T09:33:00.735Z,100608.56
2022-11-08T09:35:27.469Z,100623.00
2022-11-08T09:37:54.055Z,100618.56
2022-11-08T09:40:59.452Z,100609.91
2022-11-08T09:44:02.849Z,100613.72
2022-11-08T09:46:39.724Z,100611.34
2022-11-08T09:49:08.339Z,100606.78
2022-11-08T09:51:35.962Z,100608.16
2022-11-08T09:54:03.669Z,100600.31
2022-11-08T09:56:39.548Z,100597.28
2022-11-08T09:59:27.769Z,100590.00
2022-11-08T10:01:54.516Z,100589.84
2022-11-08T10:04:27.659Z,100584.50
2022-11-08T10:07:34.773Z,100580.41
2022-11-08T10:10:28.997Z,100583.19
2022-11-08T10:12:59.556Z,100577.81
2022-11-08T10:15:47.655Z,100579.13
2022-11-08T10:18:31.656Z,100571.91
2022-11-08T10:21:05.331Z,100566.84
2022-11-08T10:23:46.876Z,100565.56
2022-11-08T10:26:24.152Z,100550.75
2022-11-08T10:29:08.197Z,100565.78
2022-11-08T10:31:36.282Z,100558.19
2022-11-08T10:34:11.305Z,100540.59
2022-11-08T10:36:41.947Z,100547.59
2022-11-08T10:39:14.083Z,100540.47
2022-11-08T10:42:17.168Z,100541.75
2022-11-08T10:44:44.007Z,100542.94
2022-11-08T10:47:24.177Z,100539.13
2022-11-08T10:49:50.629Z,100538.38
2022-11-08T10:52:39.831Z,100536.47
2022-11-08T10:55:08.515Z,100547.41
2022-11-08T10:57:45.322Z,100551.31
2022-11-08T11:00:20.670Z,100540.25
2022-11-08T11:02:50.992Z,100536.75
2022-11-08T11:05:22.057Z,100537.84
2022-11-08T11:08:02.388Z,100517.84
2022-11-08T11:10:32.381Z,100520.84
2022-11-08T11:13:13.956Z,100515.72
2022-11-08T11:15:52.813Z,100500.84
2022-11-08T11:18:36.548Z,100488.06
2022-11-08T11:21:05.877Z,100491.91
2022-11-08T11:23:44.393Z,100494.75
2022-11-08T11:26:20.007Z,100487.88
2022-11-08T11:29:04.838Z,100494.03
2022-11-08T11:31:32.740Z,100490.94
2022-11-08T11:34:00.767Z,100494.47
2022-11-08T11:36:30.412Z,100487.25
2022-11-08T11:39:09.318Z,100495.94
2022-11-08T11:41:41.013Z,100481.81
2022-11-08T11:44:14.253Z,100468.94
2022-11-08T11:47:01.921Z,100485.47
2022-11-08T11:49:30.530Z,100487.03
2022-11-08T11:51:57.946Z,100488.47
2022-11-08T11:54:28.559Z,100484.41
2022-11-08T11:57:08.099Z,100479.19
2022-11-08T11:59:44.136Z,100472.41
2022-11-08T12:02:43.035Z,100468.38
2022-11-08T12:05:52.629Z,100475.56
2022-11-08T12:08:25.157Z,100470.59
2022-11-08T12:11:28.144Z,100464.44
2022-11-08T12:14:15.006Z,100474.03
2022-11-08T12:16:47.720Z,100475.59
2022-11-08T12:19:29.511Z,100476.84
2022-11-08T12:22:27.366Z,100469.66
2022-11-08T12:25:06.038Z,100476.28
2022-11-08T12:28:00.952Z,100481.06
2022-11-08T12:30:55.510Z,100476.38
2022-11-08T12:34:08.081Z,100466.03
2022-11-08T12:36:47.307Z,100458.00
2022-11-08T12:39:32.024Z,100456.38
2022-11-08T12:42:34.580Z,100450.44
2022-11-08T12:45:19.423Z,100451.09
2022-11-08T12:48:12.632Z,100449.97
2022-11-08T12:50:55.214Z,100439.94
2022-11-08T12:53:48.939Z,100451.50
2022-11-08T12:56:25.075Z,100451.50
2022-11-08T12:58:52.713Z,100447.06
2022-11-08T13:01:20.471Z,100443.59
2022-11-08T13:03:50.418Z,100443.59
2022-11-08T13:06:32.167Z,100446.75
2022-11-08T13:09:17.550Z,100442.16
2022-11-08T13:11:53.180Z,100444.38
2022-11-08T13:14:20.214Z,100444.63
2022-11-08T13:17:15.677Z,100448.72
2022-11-08T13:19:48.630Z,100439.63
2022-11-08T13:22:31.178Z,100440.38
2022-11-08T13:25:01.213Z,100433.94
2022-11-08T13:27:33.636Z,100433.75
2022-11-08T13:30:04.767Z,100437.19
2022-11-08T13:32:40.147Z,100438.16
2022-11-08T13:35:40.700Z,100429.06
2022-11-08T13:38:31.955Z,100425.44
2022-11-08T13:41:13.827Z,100432.16
2022-11-08T13:43:40.602Z,100438.69
2022-11-08T13:46:25.891Z,100429.31
2022-11-08T13:48:58.394Z,100430.88
2022-11-08T13:51:35.633Z,100428.22
2022-11-08T13:54:20.844Z,100429.69
2022-11-08T13:56:53.817Z,100429.41
2022-11-08T13:59:29.216Z,100433.41
2022-11-08T14:01:57.319Z,100432.66
2022-11-08T14:04:29.610Z,100431.88
2022-11-08T14:07:05.174Z,100427.72
2022-11-08T14:10:02.549Z,100430.72
2022-11-08T14:12:42.979Z,100428.53
2022-11-08T14:15:20.186Z,100427.84
2022-11-08T14:17:59.417Z,100418.81
2022-11-08T14:20:28.038Z,100416.44
2022-11-08T14:22:54.805Z,100416.94
2022-11-08T14:25:39.837Z,100405.38
2022-11-08T14:28:23.270Z,100383.16
2022-11-08T14:30:50.853Z,100378.19
2022-11-08T14:33:23.110Z,100393.78
2022-11-08T14:36:08.955Z,100380.34
2022-11-08T14:38:38.047Z,100391.72
2022-11-08T14:41:06.831Z,100390.31
2022-11-08T14:43:41.631Z,100378.41
2022-11-08T14:46:19.257Z,100380.91
2022-11-08T14:48:50.961Z,100383.88
2022-11-08T14:51:17.433Z,100383.41
2022-11-08T14:53:49.327Z,100378.16
2022-11-08T14:56:15.724Z,100381.72
2022-11-08T14:58:42.600Z,100381.16
2022-11-08T15:01:10.099Z,100391.34
2022-11-08T15:03:37.046Z,100403.19
2022-11-08T15:06:09.685Z,100408.19
2022-11-08T15:08:49.882Z,100404.84
2022-11-08T15:11:28.469Z,100390.59
2022-11-08T15:13:58.482Z,100376.28
2022-11-08T15:16:25.071Z,100374.13
2022-11-08T15:18:52.219Z,100357.38
2022-11-08T15:21:29.860Z,100350.69
2022-11-08T15:24:27.789Z,100365.28
2022-11-08T15:27:13.468Z,100373.72
2022-11-08T15:30:00.480Z,100382.63
2022-11-08T15:32:27.756Z,100379.50
2022-11-08T15:34:58.524Z,100377.78
2022-11-08T15:37:34.500Z,100377.78
2022-11-08T15:40:03.714Z,100376.47
2022-11-08T15:42:30.353Z,100372.53
2022-11-08T15:45:16.716Z,100363.84
2022-11-08T15:47:43.171Z,100369.09
2022-11-08T15:50:19.554Z,100369.50
2022-11-08T15:52:48.180Z,100375.28
2022-11-08T15:55:22.558Z,100374.59
2022-11-08T15:57:51.225Z,100376.88
2022-11-08T16:00:26.260Z,100363.28
2022-11-08T16:02:53.222Z,100362.44
2022-11-08T16:05:31.862Z,100356.94
2022-11-08T16:07:58.427Z,100363.88
2022-11-08T16:10:27.490Z,100365.44
2022-11-08T16:12:53.992Z,100356.50
2022-11-08T16:15:23.857Z,100359.16
2022-11-08T16:17:50.925Z,100358.34
2022-11-08T16:20:22.239Z,100367.06
2022-11-08T16:22:48.702Z,100363.53
2022-11-08T16:25:15.174Z,100357.69
2022-11-08T16:27:41.705Z,100361.56
2022-11-08T16:30:16.317Z,100360.47
2022-11-08T16:32:42.926Z,100367.03
2022-11-08T16:35:12.395Z,100368.94
2022-11-08T16:37:39.008Z,100359.59
2022-11-08T16:40:16.462Z,100358.31
2022-11-08T16:42:45.520Z,100363.34
2022-11-08T16:45:13.254Z,100365.50
2022-11-08T16:47:42.357Z,100367.34
2022-11-08T16:50:16.071Z,100367.09
2022-11-08T16:52:42.838Z,100370.69
2022-11-08T16:55:17.534Z,100371.44
2022-11-08T16:57:45.160Z,100365.31
2022-11-08T17:00:14.517Z,100366.59
2022-11-08T17:02:45.099Z,100383.88
2022-11-08T17:05:18.551Z,100379.81
2022-11-08T17:07:45.111Z,100365.63
2022-11-08T17:10:16.769Z,100370.50
2022-11-08T17:12:43.453Z,100367.34
2022-11-08T17:15:15.258Z,100371.63
2022-11-08T17:17:43.287Z,100367.69
2022-11-08T17:20:12.461Z,100363.47
2022-11-08T17:22:40.057Z,100368.94
2022-11-08T17:25:06.950Z,100372.34
2022-11-08T17:27:33.833Z,100371.09
2022-11-08T17:30:01.908Z,100375.72
2022-11-08T17:32:28.782Z,100373.94
2022-11-08T17:34:55.174Z,100373.44
2022-11-08T17:37:21.750Z,100376.28
2022-11-08T17:39:48.599Z,100381.84
2022-11-08T17:42:15.283Z,100380.38
2022-11-08T17:44:41.768Z,100376.19
2022-11-08T17:47:08.145Z,100383.72
2022-11-08T17:49:36.710Z,100385.25
2022-11-08T17:52:06.369Z,100381.13
2022-11-08T17:54:32.799Z,100387.31
2022-11-08T17:56:59.304Z,100381.47
2022-11-08T17:59:25.793Z,100387.03
2022-11-08T18:01:52.656Z,100385.75
2022-11-08T18:04:19.281Z,100389.00
2022-11-08T18:06:45.992Z,100401.72
2022-11-08T18:09:12.440Z,100390.00
2022-11-08T18:11:38.981Z,100400.78
2022-11-08T18:14:05.576Z,100400.06
2022-11-08T18:16:34.106Z,100393.09
2022-11-08T18:19:00.536Z,100399.69
2022-11-08T18:21:26.945Z,100396.88
2022-11-08T18:23:53.437Z,100392.97
2022-11-08T18:26:19.955Z,100392.44
2022-11-08T18:28:46.488Z,100396.03
2022-11-08T18:31:14.995Z,100391.97
2022-11-08T18:33:41.466Z,100394.09
2022-11-08T18:36:15.060Z,100395.59
2022-11-08T18:38:44.574Z,100390.47
2022-11-08T18:41:16.252Z,100392.22
2022-11-08T18:43:43.162Z,100390.75
2022-11-08T18:46:13.216Z,100391.13
2022-11-08T18:48:40.060Z,100397.16
2022-11-08T18:51:08.909Z,100397.78
2022-11-08T18:53:35.418Z,100399.09
2022-11-08T18:56:06.511Z,100395.97
2022-11-08T18:58:33.476Z,100398.16
2022-11-08T19:01:00.480Z,100393.25
2022-11-08T19:03:28.071Z,100392.00
2022-11-08T19:05:55.595Z,100398.53
2022-11-08T19:08:28.522Z,100393.75
2022-11-08T19:10:57.293Z,100391.94
2022-11-08T19:13:25.358Z,100400.56
2022-11-08T19:16:05.568Z,100390.47
2022-11-08T19:18:33.089Z,100379.38
2022-11-08T19:21:02.485Z,100389.53
2022-11-08T19:23:29.447Z,100394.53
2022-11-08T19:25:58.285Z,100393.06
2022-11-08T19:28:30.262Z,100377.56
2022-11-08T19:30:59.306Z,100376.25
2022-11-08T19:33:27.298Z,100377.81
2022-11-08T19:35:54.540Z,100384.44
2022-11-08T19:38:22.063Z,100390.84
2022-11-08T19:40:48.890Z,100383.91
2022-11-08T19:43:16.200Z,100387.03
2022-11-08T19:45:47.775Z,100398.88
2022-11-08T19:48:17.538Z,100398.22
2022-11-08T19:50:44.271Z,100397.59
2022-11-08T19:53:10.771Z,100393.94
2022-11-08T19:55:37.319Z,100396.72
2022-11-08T19:58:03.807Z,100396.59
2022-11-08T20:00:30.286Z,100396.22
2022-11-08T20:02:56.902Z,100413.31
2022-11-08T20:05:23.357Z,100406.06
2022-11-08T20:07:49.896Z,100406.44
2022-11-08T20:10:16.349Z,100404.91
2022-11-08T20:12:42.852Z,100407.34
2022-11-08T20:15:09.496Z,100406.66
2022-11-08T20:17:36.278Z,100407.97
2022-11-08T20:20:03.662Z,100405.16
2022-11-08T20:22:30.137Z,100409.63
2022-11-08T20:24:56.592Z,100410.19
2022-11-08T20:27:23.146Z,100415.38
2022-11-08T20:29:49.729Z,100418.13
2022-11-08T20:32:16.129Z,100427.25
2022-11-08T20:34:42.629Z,100423.00
2022-11-08T20:37:09.839Z,100415.44
2022-11-08T20:39:36.211Z,100415.41
2022-11-08T20:42:02.632Z,100417.75
2022-11-08T20:44:29.357Z,100417.06
2022-11-08T20:46:56.049Z,100419.50
2022-11-08T20:49:22.604Z,100425.78
2022-11-08T20:51:49.058Z,100421.38
2022-11-08T20:54:16.616Z,100415.41
2022-11-08T20:56:43.230Z,100422.00
2022-11-08T20:59:09.754Z,100417.91
2022-11-08T21:01:36.388Z,100419.16
2022-11-08T21:04:03.054Z,100424.53
2022-11-08T21:06:32.953Z,100425.03
2022-11-08T21:09:08.359Z,100433.88
2022-11-08T21:11:43.277Z,100425.59
2022-11-08T21:14:09.881Z,100426.59
2022-11-08T21:16:59.744Z,100417.72
2022-11-08T21:19:25.314Z,100418.91
2022-11-08T21:22:11.687Z,100422.53
2022-11-08T21:24:38.072Z,100426.16
2022-11-08T21:27:04.456Z,100422.88
2022-11-08T21:29:30.834Z,100417.00
2022-11-08T21:31:57.292Z,100429.41
2022-11-08T21:34:26.972Z,100431.97
2022-11-08T21:36:58.399Z,100431.59
2022-11-08T21:39:25.270Z,100430.53
2022-11-08T21:41:51.779Z,100424.78
2022-11-08T21:44:19.730Z,100424.78
2022-11-08T21:46:46.270Z,100424.47
2022-11-08T21:49:13.343Z,100428.00
2022-11-08T21:51:39.794Z,100430.63
2022-11-08T21:54:06.555Z,100424.53
2022-11-08T21:56:34.396Z,100433.22
2022-11-08T21:59:01.771Z,100434.75
2022-11-08T22:01:30.591Z,100433.66
2022-11-08T22:03:58.124Z,100432.56
2022-11-08T22:06:24.618Z,100431.22
2022-11-08T22:08:51.305Z,100433.38
2022-11-08T22:11:18.057Z,100433.53
2022-11-08T22:13:44.476Z,100435.84
2022-11-08T22:16:10.926Z,100433.44
2022-11-08T22:21:40.189Z,100428.22
2022-11-08T22:24:12.805Z,100435.25
2022-11-08T22:26:40.498Z,100437.47
2022-11-08T22:29:06.953Z,100433.91
2022-11-08T22:31:33.619Z,100431.97
2022-11-08T22:34:00.471Z,100431.00
2022-11-08T22:36:27.686Z,100436.75
2022-11-08T22:38:54.469Z,100427.53
2022-11-08T22:41:22.011Z,100428.41
2022-11-08T22:43:48.835Z,100435.03
2022-11-08T22:46:15.478Z,100431.19
2022-11-08T22:48:42.023Z,100427.34
2022-11-08T22:51:08.895Z,100424.91
2022-11-08T22:53:35.866Z,100430.31
2022-11-08T22:56:05.584Z,100430.31
2022-11-08T22:58:34.892Z,100424.19
2022-11-08T23:01:01.409Z,100429.97
2022-11-08T23:03:27.890Z,100436.66
2022-11-08T23:05:56.470Z,100434.22
2022-11-08T23:08:24.778Z,100435.53
2022-11-08T23:11:10.181Z,100434.25
2022-11-08T23:13:55.276Z,100432.56
2022-11-08T23:16:37.513Z,100439.47
2022-11-08T23:19:25.091Z,100436.34
2022-11-08T23:22:10.620Z,100430.06
2022-11-08T23:24:37.020Z,100434.69
2022-11-08T23:27:22.985Z,100441.06
2022-11-08T23:30:07.980Z,100438.69
2022-11-08T23:32:34.684Z,100435.00
2022-11-08T23:35:01.478Z,100441.34
2022-11-08T23:37:28.104Z,100433.50
2022-11-08T23:40:13.146Z,100428.69
2022-11-08T23:42:58.228Z,100426.38
2022-11-08T23:45:24.646Z,100420.63
2022-11-08T23:47:51.933Z,100420.28
2022-11-08T23:50:18.327Z,100431.44
2022-11-08T23:52:44.707Z,100421.28
2022-11-08T23:55:11.089Z,100420.25
2022-11-08T23:57:37.512Z,100419.34
